Terminal Aerodrome Forecast
Issued by NWS Raleigh/Durham, NC

Home | Current Version | Previous Version | Text Only | Print | Product List | Glossary On
Versions: 1 2 3 4 5 6 7 8 9 10 11 12 13
000
FTUS42 KRAH 231735
TAFFAY
TAF
KFAY 231735Z 2318/2418 10012G22KT 6SM -SHRA OVC040
     FM232100 11011G21KT P6SM OVC018
      TEMPO 2321/2324 2SM SHRA OVC003
     FM240300 09012G22KT 3SM -SHRA OVC008
      TEMPO 2403/2405 1 1/2SM SHRA BR OVC004
     FM240500 07011G21KT 3SM SHRA OVC005 WS020/12040KT
      TEMPO 2405/2409 1SM SHRA BR VV002
     FM241000 06011G21KT 2SM SHRA BR OVC003 WS020/14030KT
     FM241600 08006KT 4SM -SHRA BR OVC008
     FM241700 13006KT P6SM OVC016=

USA.gov is the U.S. government's official web portal to all federal, state and local government web resources and services.